sensor_id;sensor_type;location;lat;lon;timestamp;pressure;altitude;pressure_sealevel;temperature
71649;BMP180;59492;45.638;11.714;2023-03-16T00:01:04;101268.20;;;20.10
71649;BMP180;59492;45.638;11.714;2023-03-16T00:03:30;101265.80;;;20.08
71649;BMP180;59492;45.638;11.714;2023-03-16T00:05:55;101267.80;;;20.02
71649;BMP180;59492;45.638;11.714;2023-03-16T00:08:21;101275.00;;;20.00
71649;BMP180;59492;45.638;11.714;2023-03-16T00:10:47;101276.40;;;20.00
71649;BMP180;59492;45.638;11.714;2023-03-16T00:13:16;101274.60;;;19.98
71649;BMP180;59492;45.638;11.714;2023-03-16T00:15:53;101274.80;;;19.92
71649;BMP180;59492;45.638;11.714;2023-03-16T00:18:23;101282.60;;;19.90
71649;BMP180;59492;45.638;11.714;2023-03-16T00:20:57;101281.60;;;19.90
71649;BMP180;59492;45.638;11.714;2023-03-16T00:23:24;101282.00;;;19.84
71649;BMP180;59492;45.638;11.714;2023-03-16T00:25:54;101285.00;;;19.80
71649;BMP180;59492;45.638;11.714;2023-03-16T00:28:21;101289.40;;;19.80
71649;BMP180;59492;45.638;11.714;2023-03-16T00:30:47;101291.80;;;19.80
71649;BMP180;59492;45.638;11.714;2023-03-16T00:33:13;101294.20;;;19.80
71649;BMP180;59492;45.638;11.714;2023-03-16T00:35:39;101292.80;;;19.76
71649;BMP180;59492;45.638;11.714;2023-03-16T00:38:04;101295.60;;;19.72
71649;BMP180;59492;45.638;11.714;2023-03-16T00:40:30;101296.60;;;19.70
71649;BMP180;59492;45.638;11.714;2023-03-16T00:42:58;101300.00;;;19.70
71649;BMP180;59492;45.638;11.714;2023-03-16T00:45:24;101300.60;;;19.70
71649;BMP180;59492;45.638;11.714;2023-03-16T00:47:50;101301.00;;;19.66
71649;BMP180;59492;45.638;11.714;2023-03-16T00:50:18;101303.20;;;19.64
71649;BMP180;59492;45.638;11.714;2023-03-16T00:52:46;101301.80;;;19.60
71649;BMP180;59492;45.638;11.714;2023-03-16T00:55:13;101303.20;;;19.60
71649;BMP180;59492;45.638;11.714;2023-03-16T00:57:38;101302.20;;;19.60
71649;BMP180;59492;45.638;11.714;2023-03-16T01:00:06;101305.00;;;19.58
71649;BMP180;59492;45.638;11.714;2023-03-16T01:02:44;101301.80;;;19.52
71649;BMP180;59492;45.638;11.714;2023-03-16T01:05:12;101303.00;;;19.50
71649;BMP180;59492;45.638;11.714;2023-03-16T01:07:40;101303.60;;;19.50
71649;BMP180;59492;45.638;11.714;2023-03-16T01:10:08;101307.80;;;19.50
71649;BMP180;59492;45.638;11.714;2023-03-16T01:12:37;101305.60;;;19.46
71649;BMP180;59492;45.638;11.714;2023-03-16T01:15:03;101303.20;;;19.44
71649;BMP180;59492;45.638;11.714;2023-03-16T01:17:29;101302.60;;;19.40
71649;BMP180;59492;45.638;11.714;2023-03-16T01:19:59;101306.20;;;19.40
71649;BMP180;59492;45.638;11.714;2023-03-16T01:22:26;101304.20;;;19.40
71649;BMP180;59492;45.638;11.714;2023-03-16T01:24:51;101307.40;;;19.40
71649;BMP180;59492;45.638;11.714;2023-03-16T01:27:17;101304.80;;;19.36
71649;BMP180;59492;45.638;11.714;2023-03-16T01:29:42;101300.80;;;19.32
71649;BMP180;59492;45.638;11.714;2023-03-16T01:32:09;101301.80;;;19.30
71649;BMP180;59492;45.638;11.714;2023-03-16T01:34:34;101299.60;;;19.30
71649;BMP180;59492;45.638;11.714;2023-03-16T01:37:03;101296.00;;;19.30
71649;BMP180;59492;45.638;11.714;2023-03-16T01:39:29;101297.20;;;19.30
71649;BMP180;59492;45.638;11.714;2023-03-16T01:41:54;101293.20;;;19.26
71649;BMP180;59492;45.638;11.714;2023-03-16T01:44:24;101294.20;;;19.22
71649;BMP180;59492;45.638;11.714;2023-03-16T01:46:57;101295.80;;;19.20
71649;BMP180;59492;45.638;11.714;2023-03-16T01:49:27;101292.80;;;19.20
71649;BMP180;59492;45.638;11.714;2023-03-16T01:52:07;101291.20;;;19.20
71649;BMP180;59492;45.638;11.714;2023-03-16T01:54:45;101291.40;;;19.14
71649;BMP180;59492;45.638;11.714;2023-03-16T01:57:14;101288.00;;;19.12
71649;BMP180;59492;45.638;11.714;2023-03-16T02:02:18;101286.80;;;19.10
71649;BMP180;59492;45.638;11.714;2023-03-16T02:04:53;101284.00;;;19.10
71649;BMP180;59492;45.638;11.714;2023-03-16T02:07:25;101278.60;;;19.10
71649;BMP180;59492;45.638;11.714;2023-03-16T02:09:55;101282.40;;;19.10
71649;BMP180;59492;45.638;11.714;2023-03-16T02:12:23;101282.40;;;19.08
71649;BMP180;59492;45.638;11.714;2023-03-16T02:14:50;101284.00;;;19.10
71649;BMP180;59492;45.638;11.714;2023-03-16T02:17:23;101284.60;;;19.04
71649;BMP180;59492;45.638;11.714;2023-03-16T02:22:53;101290.20;;;19.00
71649;BMP180;59492;45.638;11.714;2023-03-16T02:25:23;101291.40;;;19.00
71649;BMP180;59492;45.638;11.714;2023-03-16T02:27:59;101294.20;;;19.00
71649;BMP180;59492;45.638;11.714;2023-03-16T02:30:27;101292.80;;;19.00
71649;BMP180;59492;45.638;11.714;2023-03-16T02:32:59;101291.40;;;19.00
71649;BMP180;59492;45.638;11.714;2023-03-16T02:35:24;101290.20;;;18.98
71649;BMP180;59492;45.638;11.714;2023-03-16T02:37:50;101290.20;;;18.94
71649;BMP180;59492;45.638;11.714;2023-03-16T02:42:44;101295.00;;;18.92
71649;BMP180;59492;45.638;11.714;2023-03-16T02:45:12;101300.40;;;18.92
71649;BMP180;59492;45.638;11.714;2023-03-16T02:47:42;101299.60;;;18.90
71649;BMP180;59492;45.638;11.714;2023-03-16T02:50:10;101301.00;;;18.90
71649;BMP180;59492;45.638;11.714;2023-03-16T02:52:37;101302.00;;;18.90
71649;BMP180;59492;45.638;11.714;2023-03-16T02:55:07;101304.80;;;18.90
71649;BMP180;59492;45.638;11.714;2023-03-16T02:57:34;101301.80;;;18.88
71649;BMP180;59492;45.638;11.714;2023-03-16T02:59:59;101304.40;;;18.90
71649;BMP180;59492;45.638;11.714;2023-03-16T03:02:26;101302.20;;;18.90
71649;BMP180;59492;45.638;11.714;2023-03-16T03:04:51;101301.20;;;18.86
71649;BMP180;59492;45.638;11.714;2023-03-16T03:07:20;101300.60;;;18.84
71649;BMP180;59492;45.638;11.714;2023-03-16T03:09:46;101302.40;;;18.80
71649;BMP180;59492;45.638;11.714;2023-03-16T03:12:13;101306.00;;;18.80
71649;BMP180;59492;45.638;11.714;2023-03-16T03:14:38;101306.40;;;18.80
71649;BMP180;59492;45.638;11.714;2023-03-16T03:17:05;101311.00;;;18.80
71649;BMP180;59492;45.638;11.714;2023-03-16T03:19:32;101315.00;;;18.80
71649;BMP180;59492;45.638;11.714;2023-03-16T03:22:02;101313.80;;;18.80
71649;BMP180;59492;45.638;11.714;2023-03-16T03:24:32;101313.80;;;18.80
71649;BMP180;59492;45.638;11.714;2023-03-16T03:26:59;101315.40;;;18.78
71649;BMP180;59492;45.638;11.714;2023-03-16T03:29:31;101321.60;;;18.74
71649;BMP180;59492;45.638;11.714;2023-03-16T03:32:01;101323.20;;;18.72
71649;BMP180;59492;45.638;11.714;2023-03-16T03:34:28;101329.00;;;18.70
71649;BMP180;59492;45.638;11.714;2023-03-16T03:36:55;101332.00;;;18.72
71649;BMP180;59492;45.638;11.714;2023-03-16T03:39:21;101333.80;;;18.70
71649;BMP180;59492;45.638;11.714;2023-03-16T03:41:46;101334.60;;;18.70
71649;BMP180;59492;45.638;11.714;2023-03-16T03:44:13;101338.20;;;18.70
71649;BMP180;59492;45.638;11.714;2023-03-16T03:46:40;101342.00;;;18.70
71649;BMP180;59492;45.638;11.714;2023-03-16T03:49:06;101345.80;;;18.70
71649;BMP180;59492;45.638;11.714;2023-03-16T03:51:32;101344.00;;;18.70
71649;BMP180;59492;45.638;11.714;2023-03-16T03:53:58;101344.80;;;18.70
71649;BMP180;59492;45.638;11.714;2023-03-16T03:56:24;101346.80;;;18.70
71649;BMP180;59492;45.638;11.714;2023-03-16T03:58:50;101346.60;;;18.70
71649;BMP180;59492;45.638;11.714;2023-03-16T04:01:16;101349.00;;;18.68
71649;BMP180;59492;45.638;11.714;2023-03-16T04:03:42;101354.60;;;18.66
71649;BMP180;59492;45.638;11.714;2023-03-16T04:06:08;101354.40;;;18.64
71649;BMP180;59492;45.638;11.714;2023-03-16T04:08:35;101356.40;;;18.62
71649;BMP180;59492;45.638;11.714;2023-03-16T04:11:01;101359.00;;;18.64
71649;BMP180;59492;45.638;11.714;2023-03-16T04:13:27;101362.80;;;18.60
71649;BMP180;59492;45.638;11.714;2023-03-16T04:16:01;101364.60;;;18.60
71649;BMP180;59492;45.638;11.714;2023-03-16T04:18:30;101372.40;;;18.60
71649;BMP180;59492;45.638;11.714;2023-03-16T04:21:06;101374.40;;;18.60
71649;BMP180;59492;45.638;11.714;2023-03-16T04:23:33;101380.60;;;18.46
71649;BMP180;59492;45.638;11.714;2023-03-16T04:26:00;101376.40;;;18.50
71649;BMP180;59492;45.638;11.714;2023-03-16T04:28:25;101377.40;;;18.50
71649;BMP180;59492;45.638;11.714;2023-03-16T04:30:51;101375.40;;;18.50
71649;BMP180;59492;45.638;11.714;2023-03-16T04:33:27;101382.00;;;18.50
71649;BMP180;59492;45.638;11.714;2023-03-16T04:35:53;101382.80;;;18.50
71649;BMP180;59492;45.638;11.714;2023-03-16T04:38:18;101381.60;;;18.50
71649;BMP180;59492;45.638;11.714;2023-03-16T04:40:44;101379.60;;;18.50
71649;BMP180;59492;45.638;11.714;2023-03-16T04:43:09;101385.20;;;18.50
71649;BMP180;59492;45.638;11.714;2023-03-16T04:45:36;101388.60;;;18.50
71649;BMP180;59492;45.638;11.714;2023-03-16T04:48:02;101386.40;;;18.50
71649;BMP180;59492;45.638;11.714;2023-03-16T04:50:28;101383.00;;;18.50
71649;BMP180;59492;45.638;11.714;2023-03-16T04:52:53;101385.20;;;18.50
71649;BMP180;59492;45.638;11.714;2023-03-16T04:55:20;101382.60;;;18.50
71649;BMP180;59492;45.638;11.714;2023-03-16T04:57:47;101387.20;;;18.50
71649;BMP180;59492;45.638;11.714;2023-03-16T05:00:13;101389.60;;;18.48
71649;BMP180;59492;45.638;11.714;2023-03-16T05:02:48;101391.80;;;18.46
71649;BMP180;59492;45.638;11.714;2023-03-16T05:05:15;101392.20;;;18.46
71649;BMP180;59492;45.638;11.714;2023-03-16T05:07:41;101393.00;;;18.44
71649;BMP180;59492;45.638;11.714;2023-03-16T05:10:12;101398.40;;;18.46
71649;BMP180;59492;45.638;11.714;2023-03-16T05:12:38;101402.40;;;18.42
71649;BMP180;59492;45.638;11.714;2023-03-16T05:15:04;101403.00;;;18.42
71649;BMP180;59492;45.638;11.714;2023-03-16T05:17:31;101401.60;;;18.40
71649;BMP180;59492;45.638;11.714;2023-03-16T05:19:56;101406.00;;;18.40
71649;BMP180;59492;45.638;11.714;2023-03-16T05:22:22;101404.60;;;18.42
71649;BMP180;59492;45.638;11.714;2023-03-16T05:24:48;101410.40;;;18.40
71649;BMP180;59492;45.638;11.714;2023-03-16T05:27:13;101415.40;;;18.40
71649;BMP180;59492;45.638;11.714;2023-03-16T05:29:39;101413.80;;;18.40
71649;BMP180;59492;45.638;11.714;2023-03-16T05:32:06;101414.40;;;18.40
71649;BMP180;59492;45.638;11.714;2023-03-16T05:34:32;101417.20;;;18.40
71649;BMP180;59492;45.638;11.714;2023-03-16T05:37:07;101418.80;;;18.40
71649;BMP180;59492;45.638;11.714;2023-03-16T05:39:34;101417.00;;;18.50
71649;BMP180;59492;45.638;11.714;2023-03-16T05:42:01;101415.40;;;18.50
71649;BMP180;59492;45.638;11.714;2023-03-16T05:44:26;101420.00;;;18.60
71649;BMP180;59492;45.638;11.714;2023-03-16T05:46:53;101425.80;;;18.70
71649;BMP180;59492;45.638;11.714;2023-03-16T05:49:19;101421.60;;;18.80
71649;BMP180;59492;45.638;11.714;2023-03-16T05:51:45;101424.40;;;18.96
71649;BMP180;59492;45.638;11.714;2023-03-16T05:54:11;101423.80;;;19.18
71649;BMP180;59492;45.638;11.714;2023-03-16T05:56:38;101424.60;;;19.30
71649;BMP180;59492;45.638;11.714;2023-03-16T05:59:03;101429.60;;;19.40
71649;BMP180;59492;45.638;11.714;2023-03-16T06:01:30;101427.80;;;19.40
71649;BMP180;59492;45.638;11.714;2023-03-16T06:03:58;101437.00;;;19.40
71649;BMP180;59492;45.638;11.714;2023-03-16T06:06:31;101440.80;;;19.30
71649;BMP180;59492;45.638;11.714;2023-03-16T06:08:57;101440.80;;;19.30
71649;BMP180;59492;45.638;11.714;2023-03-16T06:11:24;101446.60;;;19.30
71649;BMP180;59492;45.638;11.714;2023-03-16T06:13:50;101448.80;;;19.30
71649;BMP180;59492;45.638;11.714;2023-03-16T06:16:16;101457.60;;;19.30
71649;BMP180;59492;45.638;11.714;2023-03-16T06:18:42;101464.00;;;19.32
71649;BMP180;59492;45.638;11.714;2023-03-16T06:21:07;101471.60;;;19.40
71649;BMP180;59492;45.638;11.714;2023-03-16T06:23:33;101475.60;;;19.40
71649;BMP180;59492;45.638;11.714;2023-03-16T06:25:59;101483.20;;;19.40
71649;BMP180;59492;45.638;11.714;2023-03-16T06:28:26;101487.60;;;19.46
71649;BMP180;59492;45.638;11.714;2023-03-16T06:30:55;101495.00;;;19.50
71649;BMP180;59492;45.638;11.714;2023-03-16T06:33:22;101497.80;;;19.50
71649;BMP180;59492;45.638;11.714;2023-03-16T06:35:48;101504.20;;;19.60
71649;BMP180;59492;45.638;11.714;2023-03-16T06:38:16;101511.40;;;19.60
71649;BMP180;59492;45.638;11.714;2023-03-16T06:40:41;101516.40;;;19.60
71649;BMP180;59492;45.638;11.714;2023-03-16T06:43:07;101519.20;;;19.70
71649;BMP180;59492;45.638;11.714;2023-03-16T06:45:33;101524.40;;;19.70
71649;BMP180;59492;45.638;11.714;2023-03-16T06:47:59;101530.60;;;19.78
71649;BMP180;59492;45.638;11.714;2023-03-16T06:50:25;101532.20;;;19.80
71649;BMP180;59492;45.638;11.714;2023-03-16T06:52:51;101536.00;;;19.80
71649;BMP180;59492;45.638;11.714;2023-03-16T06:55:17;101538.40;;;19.80
71649;BMP180;59492;45.638;11.714;2023-03-16T06:57:43;101540.80;;;19.88
71649;BMP180;59492;45.638;11.714;2023-03-16T07:00:11;101541.40;;;19.90
71649;BMP180;59492;45.638;11.714;2023-03-16T07:02:38;101539.80;;;19.90
71649;BMP180;59492;45.638;11.714;2023-03-16T07:05:06;101549.00;;;19.98
71649;BMP180;59492;45.638;11.714;2023-03-16T07:07:32;101554.00;;;20.00
71649;BMP180;59492;45.638;11.714;2023-03-16T07:09:58;101557.20;;;20.00
71649;BMP180;59492;45.638;11.714;2023-03-16T07:12:24;101560.60;;;20.10
71649;BMP180;59492;45.638;11.714;2023-03-16T07:14:50;101563.20;;;20.10
71649;BMP180;59492;45.638;11.714;2023-03-16T07:17:19;101567.80;;;20.20
71649;BMP180;59492;45.638;11.714;2023-03-16T07:19:49;101575.40;;;20.20
71649;BMP180;59492;45.638;11.714;2023-03-16T07:22:20;101581.20;;;20.30
71649;BMP180;59492;45.638;11.714;2023-03-16T07:24:49;101577.20;;;20.30
71649;BMP180;59492;45.638;11.714;2023-03-16T07:27:26;101579.80;;;20.40
71649;BMP180;59492;45.638;11.714;2023-03-16T07:30:04;101584.60;;;20.50
71649;BMP180;59492;45.638;11.714;2023-03-16T07:32:35;101587.40;;;20.60
71649;BMP180;59492;45.638;11.714;2023-03-16T07:35:01;101589.20;;;20.70
71649;BMP180;59492;45.638;11.714;2023-03-16T07:37:27;101587.40;;;20.80
71649;BMP180;59492;45.638;11.714;2023-03-16T07:39:52;101586.20;;;20.90
71649;BMP180;59492;45.638;11.714;2023-03-16T07:42:18;101586.20;;;20.96
71649;BMP180;59492;45.638;11.714;2023-03-16T07:44:44;101586.60;;;21.00
71649;BMP180;59492;45.638;11.714;2023-03-16T07:47:12;101591.40;;;21.10
71649;BMP180;59492;45.638;11.714;2023-03-16T07:49:38;101592.80;;;21.20
71649;BMP180;59492;45.638;11.714;2023-03-16T07:52:05;101597.80;;;21.24
71649;BMP180;59492;45.638;11.714;2023-03-16T07:54:31;101602.20;;;21.30
71649;BMP180;59492;45.638;11.714;2023-03-16T07:56:56;101599.60;;;21.40
71649;BMP180;59492;45.638;11.714;2023-03-16T07:59:22;101600.00;;;21.46
71649;BMP180;59492;45.638;11.714;2023-03-16T08:01:47;101606.60;;;21.50
71649;BMP180;59492;45.638;11.714;2023-03-16T08:04:13;101606.00;;;21.60
71649;BMP180;59492;45.638;11.714;2023-03-16T08:06:39;101607.60;;;21.62
71649;BMP180;59492;45.638;11.714;2023-03-16T08:09:12;101611.60;;;21.70
71649;BMP180;59492;45.638;11.714;2023-03-16T08:11:39;101612.80;;;21.80
71649;BMP180;59492;45.638;11.714;2023-03-16T08:14:05;101615.20;;;21.80
71649;BMP180;59492;45.638;11.714;2023-03-16T08:16:31;101611.20;;;21.90
71649;BMP180;59492;45.638;11.714;2023-03-16T08:18:58;101614.20;;;21.90
71649;BMP180;59492;45.638;11.714;2023-03-16T08:21:24;101620.20;;;21.90
71649;BMP180;59492;45.638;11.714;2023-03-16T08:23:50;101623.40;;;22.00
71649;BMP180;59492;45.638;11.714;2023-03-16T08:26:17;101629.80;;;22.00
71649;BMP180;59492;45.638;11.714;2023-03-16T08:28:44;101624.60;;;22.06
71649;BMP180;59492;45.638;11.714;2023-03-16T08:31:11;101625.20;;;22.10
71649;BMP180;59492;45.638;11.714;2023-03-16T08:33:39;101629.40;;;22.10
71649;BMP180;59492;45.638;11.714;2023-03-16T08:36:06;101636.00;;;22.20
71649;BMP180;59492;45.638;11.714;2023-03-16T08:38:32;101638.80;;;22.20
71649;BMP180;59492;45.638;11.714;2023-03-16T08:40:59;101637.60;;;22.20
71649;BMP180;59492;45.638;11.714;2023-03-16T08:43:26;101637.60;;;22.20
71649;BMP180;59492;45.638;11.714;2023-03-16T08:45:54;101638.60;;;22.22
71649;BMP180;59492;45.638;11.714;2023-03-16T08:48:21;101641.60;;;22.30
71649;BMP180;59492;45.638;11.714;2023-03-16T08:50:56;101642.40;;;22.30
71649;BMP180;59492;45.638;11.714;2023-03-16T08:53:35;101638.00;;;22.30
71649;BMP180;59492;45.638;11.714;2023-03-16T08:56:10;101638.60;;;22.34
71649;BMP180;59492;45.638;11.714;2023-03-16T08:58:40;101634.80;;;22.38
71649;BMP180;59492;45.638;11.714;2023-03-16T09:01:13;101637.60;;;22.40
71649;BMP180;59492;45.638;11.714;2023-03-16T09:03:40;101640.40;;;22.40
71649;BMP180;59492;45.638;11.714;2023-03-16T09:06:08;101644.00;;;22.40
71649;BMP180;59492;45.638;11.714;2023-03-16T09:08:34;101642.80;;;22.40
71649;BMP180;59492;45.638;11.714;2023-03-16T09:11:02;101643.00;;;22.40
71649;BMP180;59492;45.638;11.714;2023-03-16T09:13:28;101647.40;;;22.40
71649;BMP180;59492;45.638;11.714;2023-03-16T09:15:55;101646.80;;;22.40
71649;BMP180;59492;45.638;11.714;2023-03-16T09:18:21;101655.40;;;22.40
71649;BMP180;59492;45.638;11.714;2023-03-16T09:20:49;101659.60;;;22.40
71649;BMP180;59492;45.638;11.714;2023-03-16T09:23:14;101662.60;;;22.40
71649;BMP180;59492;45.638;11.714;2023-03-16T09:25:40;101666.40;;;22.40
71649;BMP180;59492;45.638;11.714;2023-03-16T09:28:07;101661.80;;;22.40
71649;BMP180;59492;45.638;11.714;2023-03-16T09:30:35;101662.60;;;22.36
71649;BMP180;59492;45.638;11.714;2023-03-16T09:33:01;101668.80;;;22.40
71649;BMP180;59492;45.638;11.714;2023-03-16T09:35:28;101674.40;;;22.40
71649;BMP180;59492;45.638;11.714;2023-03-16T09:37:55;101671.20;;;22.36
71649;BMP180;59492;45.638;11.714;2023-03-16T09:40:24;101669.60;;;22.32
71649;BMP180;59492;45.638;11.714;2023-03-16T09:45:37;101679.80;;;22.30
71649;BMP180;59492;45.638;11.714;2023-03-16T09:48:08;101678.00;;;22.30
71649;BMP180;59492;45.638;11.714;2023-03-16T09:50:39;101677.20;;;22.30
71649;BMP180;59492;45.638;11.714;2023-03-16T09:53:28;101675.20;;;22.22
71649;BMP180;59492;45.638;11.714;2023-03-16T09:56:02;101677.40;;;22.20
71649;BMP180;59492;45.638;11.714;2023-03-16T09:58:28;101680.20;;;22.20
71649;BMP180;59492;45.638;11.714;2023-03-16T10:06:01;101674.00;;;22.10
71649;BMP180;59492;45.638;11.714;2023-03-16T10:08:35;101675.80;;;22.10
71649;BMP180;59492;45.638;11.714;2023-03-16T10:17:02;101678.60;;;22.00
71649;BMP180;59492;45.638;11.714;2023-03-16T10:19:40;101678.80;;;22.00
71649;BMP180;59492;45.638;11.714;2023-03-16T10:22:23;101674.00;;;22.00
71649;BMP180;59492;45.638;11.714;2023-03-16T10:27:53;101676.60;;;21.90
71649;BMP180;59492;45.638;11.714;2023-03-16T10:32:50;101676.20;;;21.90
71649;BMP180;59492;45.638;11.714;2023-03-16T10:41:33;101676.80;;;21.80
71649;BMP180;59492;45.638;11.714;2023-03-16T10:46:45;101680.20;;;21.80
71649;BMP180;59492;45.638;11.714;2023-03-16T10:49:24;101677.60;;;21.80
71649;BMP180;59492;45.638;11.714;2023-03-16T10:51:57;101682.00;;;21.82
71649;BMP180;59492;45.638;11.714;2023-03-16T10:54:32;101683.00;;;21.88
71649;BMP180;59492;45.638;11.714;2023-03-16T10:56:58;101680.20;;;21.90
71649;BMP180;59492;45.638;11.714;2023-03-16T10:59:29;101680.00;;;21.90
71649;BMP180;59492;45.638;11.714;2023-03-16T11:01:58;101681.00;;;21.90
71649;BMP180;59492;45.638;11.714;2023-03-16T11:04:29;101685.00;;;21.90
71649;BMP180;59492;45.638;11.714;2023-03-16T11:06:56;101683.60;;;21.90
71649;BMP180;59492;45.638;11.714;2023-03-16T11:09:31;101681.60;;;21.90
71649;BMP180;59492;45.638;11.714;2023-03-16T11:11:58;101681.60;;;21.90
71649;BMP180;59492;45.638;11.714;2023-03-16T11:14:26;101679.60;;;21.90
71649;BMP180;59492;45.638;11.714;2023-03-16T11:17:05;101676.80;;;21.90
71649;BMP180;59492;45.638;11.714;2023-03-16T11:19:55;101682.00;;;21.90
71649;BMP180;59492;45.638;11.714;2023-03-16T11:22:24;101685.20;;;21.90
71649;BMP180;59492;45.638;11.714;2023-03-16T11:25:11;101682.20;;;21.90
71649;BMP180;59492;45.638;11.714;2023-03-16T11:27:46;101675.80;;;21.88
71649;BMP180;59492;45.638;11.714;2023-03-16T11:30:23;101678.00;;;21.90
71649;BMP180;59492;45.638;11.714;2023-03-16T11:32:52;101672.80;;;21.82
71649;BMP180;59492;45.638;11.714;2023-03-16T11:35:19;101670.60;;;21.80
71649;BMP180;59492;45.638;11.714;2023-03-16T11:38:02;101670.20;;;21.80
71649;BMP180;59492;45.638;11.714;2023-03-16T11:46:26;101666.20;;;21.80
71649;BMP180;59492;45.638;11.714;2023-03-16T11:52:20;101655.80;;;21.70
71649;BMP180;59492;45.638;11.714;2023-03-16T11:55:04;101652.40;;;21.60
71649;BMP180;59492;45.638;11.714;2023-03-16T12:09:36;101635.20;;;21.52
71649;BMP180;59492;45.638;11.714;2023-03-16T12:12:38;101629.60;;;21.50
71649;BMP180;59492;45.638;11.714;2023-03-16T12:15:12;101624.40;;;21.50
71649;BMP180;59492;45.638;11.714;2023-03-16T12:17:41;101627.80;;;21.50
71649;BMP180;59492;45.638;11.714;2023-03-16T12:20:16;101626.60;;;21.48
71649;BMP180;59492;45.638;11.714;2023-03-16T12:22:58;101620.40;;;21.40
71649;BMP180;59492;45.638;11.714;2023-03-16T12:25:33;101615.80;;;21.40
71649;BMP180;59492;45.638;11.714;2023-03-16T12:38:59;101594.20;;;21.34
71649;BMP180;59492;45.638;11.714;2023-03-16T12:49:53;101587.20;;;21.30
71649;BMP180;59492;45.638;11.714;2023-03-16T12:52:21;101582.60;;;21.30
71649;BMP180;59492;45.638;11.714;2023-03-16T12:54:51;101586.00;;;21.30
71649;BMP180;59492;45.638;11.714;2023-03-16T12:57:18;101577.00;;;21.22
71649;BMP180;59492;45.638;11.714;2023-03-16T13:00:00;101572.80;;;21.20
71649;BMP180;59492;45.638;11.714;2023-03-16T13:03:02;101571.60;;;21.20
71649;BMP180;59492;45.638;11.714;2023-03-16T13:05:43;101573.20;;;21.20
71649;BMP180;59492;45.638;11.714;2023-03-16T13:08:12;101574.00;;;21.12
71649;BMP180;59492;45.638;11.714;2023-03-16T13:11:05;101578.00;;;21.14
71649;BMP180;59492;45.638;11.714;2023-03-16T13:13:32;101568.80;;;21.10
71649;BMP180;59492;45.638;11.714;2023-03-16T13:16:22;101570.80;;;21.10
71649;BMP180;59492;45.638;11.714;2023-03-16T13:18:55;101566.20;;;21.10
71649;BMP180;59492;45.638;11.714;2023-03-16T13:21:39;101560.40;;;21.10
71649;BMP180;59492;45.638;11.714;2023-03-16T13:27:01;101556.40;;;21.00
71649;BMP180;59492;45.638;11.714;2023-03-16T13:29:39;101551.40;;;21.00
71649;BMP180;59492;45.638;11.714;2023-03-16T13:32:17;101556.00;;;21.00
71649;BMP180;59492;45.638;11.714;2023-03-16T13:34:55;101554.40;;;21.00
71649;BMP180;59492;45.638;11.714;2023-03-16T13:37:26;101546.60;;;21.00
71649;BMP180;59492;45.638;11.714;2023-03-16T13:39:59;101544.00;;;20.96
71649;BMP180;59492;45.638;11.714;2023-03-16T13:42:36;101544.00;;;20.90
71649;BMP180;59492;45.638;11.714;2023-03-16T13:45:31;101543.20;;;20.90
71649;BMP180;59492;45.638;11.714;2023-03-16T13:48:04;101541.80;;;20.84
71649;BMP180;59492;45.638;11.714;2023-03-16T13:50:34;101537.80;;;20.90
71649;BMP180;59492;45.638;11.714;2023-03-16T13:53:38;101540.60;;;20.90
71649;BMP180;59492;45.638;11.714;2023-03-16T13:56:26;101539.20;;;20.80
71649;BMP180;59492;45.638;11.714;2023-03-16T13:58:56;101536.20;;;20.80
71649;BMP180;59492;45.638;11.714;2023-03-16T14:01:30;101529.60;;;20.80
71649;BMP180;59492;45.638;11.714;2023-03-16T14:03:59;101531.80;;;20.80
71649;BMP180;59492;45.638;11.714;2023-03-16T14:06:33;101532.40;;;20.80
71649;BMP180;59492;45.638;11.714;2023-03-16T14:09:02;101526.00;;;20.76
71649;BMP180;59492;45.638;11.714;2023-03-16T14:11:29;101524.80;;;20.74
71649;BMP180;59492;45.638;11.714;2023-03-16T14:13:56;101521.20;;;20.74
71649;BMP180;59492;45.638;11.714;2023-03-16T14:16:26;101520.00;;;20.70
71649;BMP180;59492;45.638;11.714;2023-03-16T14:18:57;101522.00;;;20.70
71649;BMP180;59492;45.638;11.714;2023-03-16T14:21:27;101520.20;;;20.70
71649;BMP180;59492;45.638;11.714;2023-03-16T14:24:02;101519.20;;;20.70
71649;BMP180;59492;45.638;11.714;2023-03-16T14:26:43;101517.00;;;20.70
71649;BMP180;59492;45.638;11.714;2023-03-16T14:29:27;101518.40;;;20.68
71649;BMP180;59492;45.638;11.714;2023-03-16T14:31:55;101521.40;;;20.62
71649;BMP180;59492;45.638;11.714;2023-03-16T14:34:30;101523.20;;;20.64
71649;BMP180;59492;45.638;11.714;2023-03-16T14:37:11;101521.00;;;20.60
71649;BMP180;59492;45.638;11.714;2023-03-16T14:39:37;101522.80;;;20.60
71649;BMP180;59492;45.638;11.714;2023-03-16T14:42:13;101528.80;;;20.60
71649;BMP180;59492;45.638;11.714;2023-03-16T14:44:40;101527.40;;;20.60
71649;BMP180;59492;45.638;11.714;2023-03-16T14:47:06;101529.40;;;20.60
71649;BMP180;59492;45.638;11.714;2023-03-16T14:49:35;101521.20;;;20.60
71649;BMP180;59492;45.638;11.714;2023-03-16T14:52:19;101526.00;;;20.60
71649;BMP180;59492;45.638;11.714;2023-03-16T14:54:46;101525.60;;;20.54
71649;BMP180;59492;45.638;11.714;2023-03-16T14:57:15;101528.40;;;20.52
71649;BMP180;59492;45.638;11.714;2023-03-16T14:59:41;101527.00;;;20.52
71649;BMP180;59492;45.638;11.714;2023-03-16T15:02:30;101524.60;;;20.52
71649;BMP180;59492;45.638;11.714;2023-03-16T15:04:59;101528.60;;;20.50
71649;BMP180;59492;45.638;11.714;2023-03-16T15:07:28;101533.80;;;20.50
71649;BMP180;59492;45.638;11.714;2023-03-16T15:10:24;101533.60;;;20.50
71649;BMP180;59492;45.638;11.714;2023-03-16T15:12:51;101539.60;;;20.40
71649;BMP180;59492;45.638;11.714;2023-03-16T15:15:29;101534.60;;;20.40
71649;BMP180;59492;45.638;11.714;2023-03-16T15:17:55;101536.40;;;20.40